createdAt,value
2023-06-04T00:00:01.147Z,52.28
2023-06-04T00:02:29.061Z,52.22
2023-06-04T00:04:56.924Z,52.33
2023-06-04T00:07:24.659Z,52.19
2023-06-04T00:09:52.353Z,52.31
2023-06-04T00:12:20.131Z,52.36
2023-06-04T00:14:47.852Z,52.44
2023-06-04T00:17:16.971Z,52.08
2023-06-04T00:19:44.686Z,52.07
2023-06-04T00:22:12.408Z,52.24
2023-06-04T00:24:40.334Z,52.35
2023-06-04T00:27:09.369Z,52.51
2023-06-04T00:29:37.227Z,52.27
2023-06-04T00:32:05.502Z,52.23
2023-06-04T00:34:34.805Z,52.33
2023-06-04T00:37:02.756Z,52.40
2023-06-04T00:39:30.986Z,52.82
2023-06-04T00:41:58.744Z,52.53
2023-06-04T00:44:26.816Z,52.49
2023-06-04T00:46:55.029Z,52.48
2023-06-04T00:49:22.797Z,52.58
2023-06-04T00:51:52.405Z,52.50
2023-06-04T00:54:20.449Z,52.53
2023-06-04T00:56:49.382Z,52.46
2023-06-04T00:59:17.629Z,52.24
2023-06-04T01:01:48.164Z,52.24
2023-06-04T01:04:18.901Z,52.80
2023-06-04T01:06:47.504Z,52.60
2023-06-04T01:09:16.687Z,52.63
2023-06-04T01:11:44.547Z,52.90
2023-06-04T01:14:12.306Z,52.59
2023-06-04T01:16:42.158Z,52.90
2023-06-04T01:19:22.076Z,52.80
2023-06-04T01:21:52.163Z,52.79
2023-06-04T01:24:22.654Z,52.72
2023-06-04T01:26:51.036Z,52.79
2023-06-04T01:29:18.773Z,52.78
2023-06-04T01:31:46.742Z,52.90
2023-06-04T01:34:14.503Z,52.71
2023-06-04T01:36:42.392Z,52.71
2023-06-04T01:39:11.288Z,52.69
2023-06-04T01:41:40.386Z,52.84
2023-06-04T01:44:08.100Z,52.73
2023-06-04T01:46:35.870Z,52.58
2023-06-04T01:49:03.667Z,53.00
2023-06-04T01:51:31.423Z,53.01
2023-06-04T01:53:59.110Z,52.71
2023-06-04T01:56:27.270Z,53.08
2023-06-04T01:58:56.482Z,52.97
2023-06-04T02:01:24.248Z,52.64
2023-06-04T02:03:52.036Z,52.98
2023-06-04T02:06:19.868Z,53.21
2023-06-04T02:08:47.604Z,52.97
2023-06-04T02:11:15.392Z,52.93
2023-06-04T02:13:43.106Z,53.09
2023-06-04T02:16:12.561Z,53.10
2023-06-04T02:18:40.799Z,52.96
2023-06-04T02:21:08.655Z,53.00
2023-06-04T02:23:36.614Z,53.06
2023-06-04T02:26:04.470Z,53.07
2023-06-04T02:28:32.180Z,53.09
2023-06-04T02:30:59.962Z,53.02
2023-06-04T02:33:29.026Z,52.89
2023-06-04T02:35:56.890Z,52.88
2023-06-04T02:38:24.665Z,53.04
2023-06-04T02:40:52.362Z,53.09
2023-06-04T02:43:20.138Z,53.24
2023-06-04T02:45:47.876Z,52.89
2023-06-04T02:48:15.599Z,53.06
2023-06-04T02:50:44.707Z,52.90
2023-06-04T02:53:12.398Z,53.21
2023-06-04T02:55:41.111Z,53.40
2023-06-04T02:58:09.810Z,53.16
2023-06-04T03:00:37.550Z,53.17
2023-06-04T03:03:05.538Z,53.24
2023-06-04T03:05:33.952Z,53.01
2023-06-04T03:08:04.121Z,53.30
2023-06-04T03:10:32.215Z,53.45
2023-06-04T03:13:00.031Z,53.47
2023-06-04T03:15:27.769Z,53.57
2023-06-04T03:17:56.045Z,53.16
2023-06-04T03:20:25.051Z,53.44
2023-06-04T03:22:52.967Z,53.53
2023-06-04T03:25:22.105Z,53.31
2023-06-04T03:27:49.839Z,53.31
2023-06-04T03:30:17.556Z,53.60
2023-06-04T03:32:46.588Z,53.53
2023-06-04T03:35:14.472Z,53.66
2023-06-04T03:37:42.255Z,52.99
2023-06-04T03:40:10.874Z,53.36
2023-06-04T03:42:39.937Z,53.50
2023-06-04T03:45:08.899Z,53.65
2023-06-04T03:47:36.813Z,53.69
2023-06-04T03:50:04.698Z,53.45
2023-06-04T03:52:32.422Z,53.71
2023-06-04T03:55:00.185Z,53.59
2023-06-04T03:57:27.969Z,53.39
2023-06-04T03:59:57.128Z,53.48
2023-06-04T04:02:24.958Z,53.16
2023-06-04T04:04:55.265Z,53.04
2023-06-04T04:07:23.851Z,53.30
2023-06-04T04:09:51.610Z,53.30
2023-06-04T04:12:19.380Z,53.45
2023-06-04T04:14:48.203Z,53.16
2023-06-04T04:17:17.312Z,53.24
2023-06-04T04:19:45.034Z,53.43
2023-06-04T04:22:13.435Z,53.51
2023-06-04T04:24:41.179Z,53.37
2023-06-04T04:27:11.962Z,52.96
2023-06-04T04:29:39.949Z,53.30
2023-06-04T04:32:11.638Z,53.41
2023-06-04T04:34:41.085Z,53.30
2023-06-04T04:37:09.358Z,53.44
2023-06-04T04:39:37.659Z,53.24
2023-06-04T04:42:05.979Z,53.16
2023-06-04T04:44:33.706Z,53.25
2023-06-04T04:47:01.432Z,53.04
2023-06-04T04:49:29.138Z,53.37
2023-06-04T04:51:58.227Z,53.07
2023-06-04T04:54:25.956Z,52.97
2023-06-04T04:57:11.814Z,52.83
2023-06-04T04:59:40.310Z,52.89
2023-06-04T05:02:08.610Z,52.93
2023-06-04T05:04:36.558Z,53.04
2023-06-04T05:07:06.305Z,52.92
2023-06-04T05:09:34.083Z,53.11
2023-06-04T05:12:02.726Z,52.78
2023-06-04T05:14:30.661Z,52.83
2023-06-04T05:16:58.472Z,53.06
2023-06-04T05:19:26.174Z,53.03
2023-06-04T05:21:54.375Z,52.81
2023-06-04T05:24:23.441Z,52.70
2023-06-04T05:26:51.170Z,52.54
2023-06-04T05:29:18.938Z,53.06
2023-06-04T05:31:46.764Z,52.88
2023-06-04T05:34:17.391Z,53.08
2023-06-04T05:36:45.326Z,52.81
2023-06-04T05:39:13.071Z,52.81
2023-06-04T05:41:43.306Z,52.87
2023-06-04T05:44:11.107Z,52.55
2023-06-04T05:46:38.849Z,52.72
2023-06-04T05:49:06.582Z,52.40
2023-06-04T05:51:34.437Z,52.44
2023-06-04T05:54:02.726Z,52.44
2023-06-04T05:56:30.476Z,52.33
2023-06-04T05:58:59.516Z,52.34
2023-06-04T06:01:27.245Z,52.45
2023-06-04T06:03:55.015Z,52.29
2023-06-04T06:06:22.985Z,52.57
2023-06-04T06:08:51.803Z,52.51
2023-06-04T06:11:19.656Z,52.17
2023-06-04T06:13:47.344Z,52.45
2023-06-04T06:16:18.226Z,52.26
2023-06-04T06:18:46.250Z,51.97
2023-06-04T06:21:13.976Z,52.26
2023-06-04T06:23:42.009Z,52.17
2023-06-04T06:26:10.188Z,51.87
2023-06-04T06:28:38.035Z,52.14
2023-06-04T06:31:06.128Z,51.98
2023-06-04T06:33:35.419Z,52.04
2023-06-04T06:36:03.199Z,52.36
2023-06-04T06:38:32.768Z,51.93
2023-06-04T06:41:00.600Z,52.21
2023-06-04T06:43:28.412Z,52.01
2023-06-04T06:45:56.157Z,51.85
2023-06-04T06:48:24.016Z,52.05
2023-06-04T06:50:53.206Z,51.95
2023-06-04T06:53:21.177Z,51.90
2023-06-04T06:55:49.042Z,51.77
2023-06-04T06:58:17.280Z,51.22
2023-06-04T07:00:45.015Z,51.45
2023-06-04T07:03:13.127Z,51.68
2023-06-04T07:05:40.896Z,51.87
2023-06-04T07:08:09.970Z,51.98
2023-06-04T07:10:38.063Z,51.61
2023-06-04T07:13:06.050Z,51.41
2023-06-04T07:15:33.810Z,51.86
2023-06-04T07:18:01.580Z,51.77
2023-06-04T07:20:29.384Z,51.60
2023-06-04T07:22:57.126Z,51.35
2023-06-04T07:25:26.823Z,51.50
2023-06-04T07:27:54.593Z,51.60
2023-06-04T07:30:22.440Z,51.35
2023-06-04T07:32:50.402Z,51.30
2023-06-04T07:35:18.189Z,51.57
2023-06-04T07:37:48.655Z,51.18
2023-06-04T07:40:16.830Z,51.36
2023-06-04T07:42:47.263Z,51.21
2023-06-04T07:45:14.985Z,51.19
2023-06-04T07:47:42.839Z,51.39
2023-06-04T07:50:10.745Z,50.98
2023-06-04T07:52:38.451Z,51.36
2023-06-04T07:55:07.145Z,51.20
2023-06-04T07:57:34.883Z,50.85
2023-06-04T08:00:06.797Z,51.21
2023-06-04T08:02:34.651Z,51.22
2023-06-04T08:05:03.528Z,51.25
2023-06-04T08:07:31.651Z,51.26
2023-06-04T08:09:59.370Z,51.15
2023-06-04T08:12:27.072Z,51.20
2023-06-04T08:14:57.874Z,51.16
2023-06-04T08:17:27.014Z,51.09
2023-06-04T08:19:54.806Z,51.14
2023-06-04T08:22:22.533Z,50.84
2023-06-04T08:24:50.319Z,50.96
2023-06-04T08:27:18.865Z,50.51
2023-06-04T08:29:46.672Z,50.54
2023-06-04T08:32:14.761Z,50.96
2023-06-04T08:34:43.887Z,50.93
2023-06-04T08:37:11.616Z,50.48
2023-06-04T08:39:39.355Z,50.88
2023-06-04T08:42:09.272Z,50.88
2023-06-04T08:44:37.025Z,50.52
2023-06-04T08:47:06.236Z,50.81
2023-06-04T08:49:36.559Z,50.31
2023-06-04T08:52:06.916Z,50.45
2023-06-04T08:54:34.857Z,50.72
2023-06-04T08:57:02.687Z,50.42
2023-06-04T08:59:30.421Z,50.51
2023-06-04T09:01:58.140Z,50.82
2023-06-04T09:04:25.953Z,50.23
2023-06-04T09:06:53.768Z,50.54
2023-06-04T09:09:22.887Z,50.31
2023-06-04T09:11:53.068Z,50.38
2023-06-04T09:14:20.945Z,50.02
2023-06-04T09:16:48.830Z,50.52
2023-06-04T09:19:16.846Z,50.22
2023-06-04T09:21:51.664Z,50.28
2023-06-04T09:24:19.946Z,49.96
2023-06-04T09:26:49.018Z,49.73
2023-06-04T09:29:16.885Z,49.69
2023-06-04T09:31:48.021Z,49.96
2023-06-04T09:34:16.146Z,49.82
2023-06-04T09:36:43.884Z,49.96
2023-06-04T09:39:20.599Z,49.71
2023-06-04T09:42:00.733Z,49.59
2023-06-04T09:44:28.482Z,49.52
2023-06-04T09:46:57.118Z,50.23
2023-06-04T09:49:25.006Z,50.09
2023-06-04T09:51:52.860Z,49.75
2023-06-04T09:54:20.714Z,49.86
2023-06-04T09:56:48.463Z,49.41
2023-06-04T09:59:17.582Z,49.58
2023-06-04T10:01:45.524Z,50.21
2023-06-04T10:04:13.305Z,49.48
2023-06-04T10:06:41.114Z,49.33
2023-06-04T10:09:10.207Z,49.95
2023-06-04T10:11:39.810Z,49.52
2023-06-04T10:14:11.879Z,49.38
2023-06-04T10:16:41.320Z,49.24
2023-06-04T10:19:09.375Z,49.35
2023-06-04T10:21:37.238Z,49.48
2023-06-04T10:24:05.371Z,49.26
2023-06-04T10:26:35.028Z,48.86
2023-06-04T10:29:02.861Z,48.86
2023-06-04T10:31:30.886Z,49.41
2023-06-04T10:34:00.085Z,48.97
2023-06-04T10:36:29.779Z,49.36
2023-06-04T10:38:57.634Z,49.25
2023-06-04T10:41:27.595Z,49.28
2023-06-04T10:44:02.823Z,49.16
2023-06-04T10:46:39.777Z,49.24
2023-06-04T10:49:10.757Z,48.90
2023-06-04T10:51:38.904Z,48.78
2023-06-04T10:54:07.829Z,48.78
2023-06-04T10:56:36.150Z,48.73
2023-06-04T10:59:15.392Z,48.68
2023-06-04T11:01:43.155Z,48.70
2023-06-04T11:04:22.557Z,48.82
2023-06-04T11:06:50.504Z,48.62
2023-06-04T11:09:19.810Z,48.85
2023-06-04T11:11:58.066Z,48.76
2023-06-04T11:14:25.797Z,48.90
2023-06-04T11:16:53.506Z,48.75
2023-06-04T11:19:22.599Z,48.68
2023-06-04T11:21:50.717Z,48.63
2023-06-04T11:24:18.743Z,48.91
2023-06-04T11:26:56.756Z,48.78
2023-06-04T11:29:24.679Z,48.63
2023-06-04T11:31:52.432Z,48.47
2023-06-04T11:34:27.432Z,48.48
2023-06-04T11:36:55.166Z,48.00
2023-06-04T11:39:23.018Z,48.30
2023-06-04T11:41:51.312Z,48.31
2023-06-04T11:44:20.548Z,48.31
2023-06-04T11:46:49.710Z,48.10
2023-06-04T11:49:17.984Z,48.49
2023-06-04T11:51:49.243Z,48.33
2023-06-04T11:54:17.981Z,48.57
2023-06-04T11:56:46.171Z,48.22
2023-06-04T11:59:15.523Z,48.25
2023-06-04T12:01:43.795Z,48.50
2023-06-04T12:04:14.995Z,48.28
2023-06-04T12:06:54.616Z,48.56
2023-06-04T12:09:22.542Z,48.32
2023-06-04T12:11:50.248Z,48.25
2023-06-04T12:14:18.549Z,48.13
2023-06-04T12:16:56.234Z,48.07
2023-06-04T12:19:24.016Z,48.21
2023-06-04T12:22:03.651Z,48.27
2023-06-04T12:24:32.039Z,48.25
2023-06-04T12:27:06.662Z,48.48
2023-06-04T12:29:34.872Z,47.90
2023-06-04T12:32:06.641Z,48.10
2023-06-04T12:34:34.408Z,47.64
2023-06-04T12:37:04.214Z,47.93
2023-06-04T12:39:32.056Z,48.03
2023-06-04T12:41:59.814Z,47.94
2023-06-04T12:44:27.541Z,48.28
2023-06-04T12:46:55.359Z,47.92
2023-06-04T12:49:23.092Z,47.64
2023-06-04T12:51:50.941Z,47.72
2023-06-04T12:54:20.023Z,47.67
2023-06-04T12:56:47.731Z,47.42
2023-06-04T12:59:15.560Z,47.49
2023-06-04T13:01:43.379Z,47.55
2023-06-04T13:04:11.284Z,47.50
2023-06-04T13:06:39.286Z,47.38
2023-06-04T13:09:09.960Z,47.38
2023-06-04T13:11:41.053Z,47.46
2023-06-04T13:14:09.027Z,46.82
2023-06-04T13:16:37.008Z,46.97
2023-06-04T13:19:04.774Z,47.33
2023-06-04T13:21:32.764Z,47.08
2023-06-04T13:24:00.544Z,46.71
2023-06-04T13:26:28.365Z,46.99
2023-06-04T13:28:57.421Z,46.81
2023-06-04T13:31:25.186Z,47.03
2023-06-04T13:33:53.004Z,46.36
2023-06-04T13:36:20.710Z,46.58
2023-06-04T13:38:48.428Z,47.21
2023-06-04T13:41:16.126Z,46.96
2023-06-04T13:43:43.890Z,46.97
2023-06-04T13:46:12.958Z,46.68
2023-06-04T13:48:40.791Z,46.71
2023-06-04T13:51:08.890Z,46.63
2023-06-04T13:53:36.810Z,46.50
2023-06-04T13:56:04.799Z,46.36
2023-06-04T13:58:33.002Z,46.54
2023-06-04T14:01:00.864Z,46.33
2023-06-04T14:03:30.071Z,46.34
2023-06-04T14:05:58.005Z,46.45
2023-06-04T14:08:25.766Z,47.05
2023-06-04T14:10:56.017Z,46.85
2023-06-04T14:13:23.746Z,46.73
2023-06-04T14:15:52.206Z,46.54
2023-06-04T14:18:20.035Z,46.48
2023-06-04T14:20:49.123Z,46.25
2023-06-04T14:23:17.631Z,46.11
2023-06-04T14:25:45.390Z,45.02
2023-06-04T14:28:13.225Z,44.74
2023-06-04T14:30:40.929Z,43.39
2023-06-04T14:33:08.677Z,41.66
2023-06-04T14:35:36.438Z,40.48
2023-06-04T14:38:05.502Z,39.78
2023-06-04T14:40:36.533Z,38.91
2023-06-04T14:43:04.270Z,38.39
2023-06-04T14:45:31.963Z,37.92
2023-06-04T14:48:13.418Z,37.35
2023-06-04T14:50:42.357Z,37.54
2023-06-04T14:53:11.471Z,37.40
2023-06-04T14:55:39.185Z,37.06
2023-06-04T14:58:07.086Z,37.00
2023-06-04T15:00:34.812Z,36.42
2023-06-04T15:03:03.239Z,37.39
2023-06-04T15:05:31.693Z,38.13
2023-06-04T15:07:59.395Z,38.20
2023-06-04T15:10:28.587Z,39.38
2023-06-04T15:12:56.380Z,39.33
2023-06-04T15:15:24.171Z,39.66
2023-06-04T15:17:52.021Z,40.35
2023-06-04T15:20:19.777Z,40.26
2023-06-04T15:22:47.495Z,40.66
2023-06-04T15:25:15.210Z,40.63
2023-06-04T15:27:44.269Z,40.55
2023-06-04T15:30:12.214Z,41.50
2023-06-04T15:32:40.017Z,41.20
2023-06-04T15:35:07.992Z,40.59
2023-06-04T15:37:35.807Z,41.47
2023-06-04T15:40:04.328Z,41.81
2023-06-04T15:42:32.085Z,41.12
2023-06-04T15:45:01.201Z,41.49
2023-06-04T15:47:29.088Z,40.89
2023-06-04T15:49:56.933Z,42.30
2023-06-04T15:52:24.661Z,42.31
2023-06-04T15:54:52.365Z,42.32
2023-06-04T15:57:20.090Z,42.55
2023-06-04T15:59:47.826Z,41.80
2023-06-04T16:02:16.949Z,41.13
2023-06-04T16:04:44.657Z,40.42
2023-06-04T16:07:12.360Z,39.99
2023-06-04T16:09:40.086Z,39.57
2023-06-04T16:12:08.137Z,40.79
2023-06-04T16:14:36.288Z,41.63
2023-06-04T16:17:04.810Z,41.13
2023-06-04T16:19:33.896Z,41.11
2023-06-04T16:22:01.659Z,41.16
2023-06-04T16:24:29.417Z,41.70
2023-06-04T16:26:57.141Z,41.14
2023-06-04T16:29:24.851Z,42.08
2023-06-04T16:31:52.652Z,42.33
2023-06-04T16:34:20.433Z,42.51
2023-06-04T16:36:49.530Z,42.75
2023-06-04T16:39:17.482Z,42.72
2023-06-04T16:41:45.407Z,42.74
2023-06-04T16:44:13.102Z,42.52
2023-06-04T16:46:40.816Z,42.36
2023-06-04T16:49:08.563Z,42.11
2023-06-04T16:51:37.204Z,43.30
2023-06-04T16:54:06.394Z,43.30
2023-06-04T16:56:34.477Z,42.95
2023-06-04T16:59:02.220Z,43.14
2023-06-04T17:01:30.003Z,42.21
2023-06-04T17:03:57.823Z,41.98
2023-06-04T17:06:27.298Z,42.21
2023-06-04T17:08:55.029Z,42.24
2023-06-04T17:11:24.102Z,42.20
2023-06-04T17:13:51.843Z,42.58
2023-06-04T17:16:19.588Z,42.03
2023-06-04T17:18:47.530Z,42.04
2023-06-04T17:21:18.044Z,41.85
2023-06-04T17:23:49.294Z,42.25
2023-06-04T17:26:17.230Z,42.89
2023-06-04T17:28:46.343Z,42.20
2023-06-04T17:31:18.168Z,42.83
2023-06-04T17:33:46.290Z,42.79
2023-06-04T17:36:14.035Z,42.32
2023-06-04T17:38:41.804Z,42.29
2023-06-04T17:41:09.525Z,42.17
2023-06-04T17:43:37.988Z,42.06
2023-06-04T17:46:07.495Z,42.23
2023-06-04T17:48:36.249Z,42.99
2023-06-04T17:51:04.623Z,42.99
2023-06-04T17:53:32.396Z,42.14
2023-06-04T17:56:00.185Z,42.55
2023-06-04T17:58:27.985Z,43.00
2023-06-04T18:00:55.818Z,42.91
2023-06-04T18:03:24.920Z,42.06
2023-06-04T18:05:52.756Z,42.27
2023-06-04T18:08:20.488Z,42.89
2023-06-04T18:10:48.375Z,43.09
2023-06-04T18:13:16.327Z,43.05
2023-06-04T18:15:44.254Z,43.16
2023-06-04T18:18:12.086Z,43.16
2023-06-04T18:20:41.990Z,42.54
2023-06-04T18:23:13.051Z,42.56
2023-06-04T18:25:41.055Z,43.08
2023-06-04T18:28:08.772Z,42.54
2023-06-04T18:30:36.525Z,42.80
2023-06-04T18:33:04.522Z,42.75
2023-06-04T18:35:33.242Z,43.51
2023-06-04T18:38:04.706Z,43.37
2023-06-04T18:40:32.475Z,42.65
2023-06-04T18:43:00.264Z,43.32
2023-06-04T18:45:27.991Z,42.54
2023-06-04T18:47:55.811Z,43.27
2023-06-04T18:50:23.732Z,42.95
2023-06-04T18:52:51.626Z,42.69
2023-06-04T18:55:20.742Z,43.20
2023-06-04T18:57:48.616Z,43.13
2023-06-04T19:00:17.194Z,43.29
2023-06-04T19:02:45.789Z,43.82
2023-06-04T19:05:13.583Z,43.75
2023-06-04T19:07:41.813Z,43.83
2023-06-04T19:10:10.189Z,43.71
2023-06-04T19:12:40.650Z,43.35
2023-06-04T19:15:10.066Z,43.89
2023-06-04T19:17:37.839Z,43.47
2023-06-04T19:20:06.493Z,43.68
2023-06-04T19:22:34.278Z,44.23
2023-06-04T19:25:02.051Z,44.13
2023-06-04T19:27:29.851Z,43.36
2023-06-04T19:29:58.991Z,44.09
2023-06-04T19:32:29.069Z,44.43
2023-06-04T19:34:56.979Z,44.78
2023-06-04T19:37:24.807Z,44.38
2023-06-04T19:39:52.549Z,45.19
2023-06-04T19:42:21.561Z,45.51
2023-06-04T19:44:49.312Z,45.42
2023-06-04T19:47:18.503Z,45.62
2023-06-04T19:49:46.888Z,46.11
2023-06-04T19:52:14.684Z,46.81
2023-06-04T19:54:42.506Z,46.46
2023-06-04T19:57:11.217Z,46.64
2023-06-04T19:59:40.039Z,47.14
2023-06-04T20:02:08.194Z,46.91
2023-06-04T20:04:37.314Z,47.14
2023-06-04T20:07:05.114Z,47.38
2023-06-04T20:09:33.948Z,47.65
2023-06-04T20:12:01.849Z,47.77
2023-06-04T20:14:29.660Z,47.77
2023-06-04T20:16:57.443Z,48.17
2023-06-04T20:19:25.199Z,47.97
2023-06-04T20:21:54.284Z,48.27
2023-06-04T20:24:22.029Z,48.03
2023-06-04T20:26:49.773Z,48.25
2023-06-04T20:29:17.627Z,48.47
2023-06-04T20:31:46.740Z,48.82
2023-06-04T20:34:14.537Z,48.84
2023-06-04T20:36:42.315Z,48.89
2023-06-04T20:39:11.803Z,48.83
2023-06-04T20:41:39.536Z,49.11
2023-06-04T20:44:07.314Z,49.06
2023-06-04T20:46:35.150Z,49.05
2023-06-04T20:49:04.021Z,49.34
2023-06-04T20:51:32.692Z,49.28
2023-06-04T20:54:00.498Z,49.27
2023-06-04T20:56:29.590Z,49.42
2023-06-04T20:58:57.328Z,49.42
2023-06-04T21:01:25.115Z,49.67
2023-06-04T21:03:53.004Z,49.65
2023-06-04T21:06:21.392Z,49.62
2023-06-04T21:08:49.080Z,49.63
2023-06-04T21:11:16.764Z,49.83
2023-06-04T21:13:45.794Z,49.98
2023-06-04T21:16:13.495Z,49.95
2023-06-04T21:18:41.239Z,49.94
2023-06-04T21:21:09.732Z,49.91
2023-06-04T21:23:38.157Z,50.34
2023-06-04T21:26:06.242Z,50.16
2023-06-04T21:28:33.982Z,50.13
2023-06-04T21:31:03.163Z,50.09
2023-06-04T21:33:30.897Z,50.20
2023-06-04T21:35:58.614Z,50.53
2023-06-04T21:38:27.417Z,50.66
2023-06-04T21:40:55.129Z,50.35
2023-06-04T21:43:23.469Z,50.43
2023-06-04T21:45:51.704Z,50.48
2023-06-04T21:48:20.851Z,50.55
2023-06-04T21:50:48.733Z,50.62
2023-06-04T21:53:16.536Z,50.62
2023-06-04T21:55:44.251Z,50.69
2023-06-04T21:58:12.020Z,50.68
2023-06-04T22:00:39.956Z,50.63
2023-06-04T22:03:07.789Z,50.75
2023-06-04T22:05:37.067Z,50.74
2023-06-04T22:08:04.896Z,50.77
2023-06-04T22:10:32.753Z,50.73
2023-06-04T22:13:00.692Z,50.92
2023-06-04T22:15:28.412Z,50.99
2023-06-04T22:17:58.733Z,50.94
2023-06-04T22:20:28.159Z,51.04
2023-06-04T22:22:57.398Z,51.15
2023-06-04T22:25:25.110Z,50.92
2023-06-04T22:27:52.832Z,51.02
2023-06-04T22:30:20.610Z,50.97
2023-06-04T22:32:48.357Z,51.20
2023-06-04T22:35:16.102Z,51.35
2023-06-04T22:37:43.861Z,51.19
2023-06-04T22:40:14.216Z,51.29
2023-06-04T22:42:41.972Z,51.05
2023-06-04T22:45:10.490Z,51.11
2023-06-04T22:47:38.237Z,51.27
2023-06-04T22:50:07.690Z,51.41
2023-06-04T22:52:35.660Z,51.31
2023-06-04T22:55:04.000Z,51.40
2023-06-04T22:57:33.074Z,51.50
2023-06-04T23:00:00.933Z,51.31
2023-06-04T23:02:28.800Z,51.41
2023-06-04T23:04:56.916Z,51.48
2023-06-04T23:07:24.700Z,51.44
2023-06-04T23:09:52.977Z,51.58
2023-06-04T23:12:20.804Z,51.51
2023-06-04T23:14:49.911Z,51.65
2023-06-04T23:17:19.477Z,51.72
2023-06-04T23:19:47.520Z,51.64
2023-06-04T23:22:15.447Z,51.82
2023-06-04T23:24:43.153Z,51.71
2023-06-04T23:27:10.924Z,51.93
2023-06-04T23:29:38.619Z,51.84
2023-06-04T23:32:08.139Z,51.76
2023-06-04T23:34:36.514Z,51.65
2023-06-04T23:37:04.230Z,51.70
2023-06-04T23:39:31.932Z,51.73
2023-06-04T23:41:59.769Z,51.83
2023-06-04T23:44:27.517Z,51.75
2023-06-04T23:46:55.424Z,51.70
2023-06-04T23:49:24.569Z,52.00
2023-06-04T23:51:52.564Z,51.78
2023-06-04T23:54:20.273Z,51.90
2023-06-04T23:56:47.988Z,51.85
2023-06-04T23:59:15.768Z,52.08
